createdAt,value
2022-08-05T00:01:20.946Z,3.42
2022-08-05T00:03:52.527Z,6.28
2022-08-05T00:06:32.118Z,2.97
2022-08-05T00:09:02.738Z,9.63
2022-08-05T00:11:35.185Z,4.40
2022-08-05T00:14:17.403Z,5.72
2022-08-05T00:16:52.476Z,5.82
2022-08-05T00:19:22.311Z,8.75
2022-08-05T00:21:50.732Z,6.28
2022-08-05T00:24:24.649Z,5.97
2022-08-05T00:26:53.358Z,5.55
2022-08-05T00:29:22.630Z,10.00
2022-08-05T00:32:13.385Z,8.55
2022-08-05T00:34:54.018Z,5.78
2022-08-05T00:37:50.695Z,7.00
2022-08-05T00:40:27.286Z,7.30
2022-08-05T00:42:57.281Z,5.45
2022-08-05T00:45:38.801Z,6.32
2022-08-05T00:48:11.553Z,8.13
2022-08-05T00:50:41.413Z,5.45
2022-08-05T00:54:01.161Z,10.15
2022-08-05T00:56:01.481Z,7.45
2022-08-05T00:58:29.229Z,8.80
2022-08-05T01:00:57.232Z,4.45
2022-08-05T01:03:30.920Z,3.65
2022-08-05T01:06:01.362Z,10.80
2022-08-05T01:08:43.103Z,10.00
2022-08-05T01:11:22.458Z,5.75
2022-08-05T01:13:59.731Z,7.32
2022-08-05T01:16:30.457Z,7.75
2022-08-05T01:19:01.895Z,7.53
2022-08-05T01:21:43.911Z,11.30
2022-08-05T01:24:30.145Z,5.45
2022-08-05T01:27:17.518Z,3.72
2022-08-05T01:29:51.686Z,4.60
2022-08-05T01:32:22.748Z,10.23
2022-08-05T01:34:53.490Z,9.07
2022-08-05T01:37:25.474Z,5.57
2022-08-05T01:39:59.200Z,4.32
2022-08-05T01:42:27.921Z,7.53
2022-08-05T01:44:59.185Z,12.77
2022-08-05T01:47:30.555Z,8.35
2022-08-05T01:50:15.649Z,5.72
2022-08-05T01:52:44.797Z,6.28
2022-08-05T01:55:18.855Z,4.80
2022-08-05T01:58:10.034Z,3.22
2022-08-05T02:00:38.838Z,5.05
2022-08-05T02:05:59.845Z,3.00
2022-08-05T02:08:31.169Z,7.75
2022-08-05T02:11:00.854Z,3.45
2022-08-05T02:13:36.610Z,5.55
2022-08-05T02:16:23.265Z,5.95
2022-08-05T02:18:53.611Z,7.20
2022-08-05T02:21:26.325Z,4.90
2022-08-05T02:23:57.366Z,5.70
2022-08-05T02:26:26.768Z,4.38
2022-08-05T02:28:55.779Z,7.82
2022-08-05T02:31:34.550Z,6.57
2022-08-05T02:34:04.483Z,6.10
2022-08-05T02:36:34.601Z,6.45
2022-08-05T02:39:04.621Z,4.70
2022-08-05T02:41:57.597Z,6.45
2022-08-05T02:44:26.457Z,11.52
2022-08-05T02:47:00.136Z,4.05
2022-08-05T02:49:35.882Z,3.15
2022-08-05T02:52:06.413Z,6.70
2022-08-05T02:54:37.446Z,5.45
2022-08-05T02:57:10.381Z,7.57
2022-08-05T02:59:56.012Z,5.78
2022-08-05T03:02:29.315Z,5.20
2022-08-05T03:04:58.699Z,5.32
2022-08-05T03:08:01.430Z,8.18
2022-08-05T03:10:16.120Z,2.13
2022-08-05T03:12:54.401Z,8.40
2022-08-05T03:15:24.317Z,6.63
2022-08-05T03:17:55.661Z,4.38
2022-08-05T03:20:24.431Z,3.78
2022-08-05T03:22:53.168Z,3.40
2022-08-05T03:25:33.533Z,5.70
2022-08-05T03:28:14.108Z,8.23
2022-08-05T03:30:42.529Z,12.65
2022-08-05T03:33:12.101Z,3.65
2022-08-05T03:35:41.862Z,4.80
2022-08-05T03:38:11.791Z,6.82
2022-08-05T03:40:41.359Z,7.82
2022-08-05T03:43:58.284Z,9.10
2022-08-05T03:46:01.945Z,7.00
2022-08-05T03:48:35.625Z,8.60
2022-08-05T03:52:50.258Z,3.38
2022-08-05T03:55:52.078Z,8.23
2022-08-05T03:56:46.379Z,3.45
2022-08-05T03:59:16.615Z,10.15
2022-08-05T04:01:59.102Z,5.13
2022-08-05T04:04:30.633Z,9.10
2022-08-05T04:06:59.911Z,6.10
2022-08-05T04:09:28.217Z,9.60
2022-08-05T04:11:58.669Z,5.20
2022-08-05T04:14:30.479Z,8.60
2022-08-05T04:17:02.944Z,4.65
2022-08-05T04:19:32.649Z,5.72
2022-08-05T04:22:08.467Z,4.82
2022-08-05T04:24:39.069Z,6.82
2022-08-05T04:27:43.563Z,14.80
2022-08-05T04:30:12.607Z,7.28
2022-08-05T04:32:44.679Z,9.85
2022-08-05T04:35:17.335Z,10.73
2022-08-05T04:38:02.580Z,7.95
2022-08-05T04:40:34.277Z,7.40
2022-08-05T04:43:02.392Z,6.63
2022-08-05T04:45:47.791Z,4.93
2022-08-05T04:48:27.079Z,6.50
2022-08-05T04:51:01.687Z,6.80
2022-08-05T04:53:55.521Z,10.85
2022-08-05T04:57:04.637Z,7.85
2022-08-05T04:59:56.274Z,9.43
2022-08-05T05:05:31.297Z,5.65
2022-08-05T05:08:06.091Z,7.45
2022-08-05T05:14:36.257Z,7.88
2022-08-05T05:17:07.607Z,12.93
2022-08-05T05:19:49.351Z,13.77
2022-08-05T05:22:26.112Z,9.30
2022-08-05T05:25:00.228Z,11.40
2022-08-05T05:27:48.585Z,8.27
2022-08-05T05:30:29.866Z,21.95
2022-08-05T05:33:03.498Z,10.55
2022-08-05T05:35:39.594Z,9.52
2022-08-05T05:40:48.393Z,15.20
2022-08-05T05:43:27.545Z,10.07
2022-08-05T05:46:08.497Z,12.70
2022-08-05T05:48:42.149Z,9.23
2022-08-05T05:51:15.706Z,8.52
2022-08-05T05:53:54.414Z,12.60
2022-08-05T05:56:32.900Z,9.95
2022-08-05T05:59:05.361Z,9.55
2022-08-05T06:01:37.416Z,10.55
2022-08-05T06:04:07.477Z,10.10
2022-08-05T06:06:36.063Z,9.07
2022-08-05T06:09:04.814Z,11.13
2022-08-05T06:11:34.151Z,11.23
2022-08-05T06:14:02.766Z,11.52
2022-08-05T06:16:36.681Z,13.80
2022-08-05T06:19:07.457Z,10.70
2022-08-05T06:21:37.570Z,10.00
2022-08-05T06:24:07.814Z,11.27
2022-08-05T06:26:51.290Z,11.40
2022-08-05T06:29:43.085Z,15.48
2022-08-05T06:32:25.609Z,7.88
2022-08-05T06:34:56.553Z,14.07
2022-08-05T06:37:56.114Z,5.85
2022-08-05T06:40:13.822Z,11.27
2022-08-05T06:42:43.153Z,7.30
2022-08-05T06:45:21.237Z,6.72
2022-08-05T06:48:37.045Z,7.88
2022-08-05T06:50:49.881Z,9.48
2022-08-05T06:53:27.759Z,8.88
2022-08-05T06:55:56.651Z,6.55
2022-08-05T06:58:29.670Z,8.32
2022-08-05T07:01:03.435Z,6.18
2022-08-05T07:03:33.221Z,6.88
2022-08-05T07:06:05.411Z,8.38
2022-08-05T07:08:33.416Z,12.10
2022-08-05T07:11:02.001Z,10.93
2022-08-05T07:13:57.534Z,8.13
2022-08-05T07:18:01.402Z,8.05
2022-08-05T07:22:28.154Z,7.28
2022-08-05T07:24:58.603Z,9.18
2022-08-05T07:27:27.763Z,10.50
2022-08-05T07:30:27.963Z,11.00
2022-08-05T07:32:58.878Z,11.52
2022-08-05T07:36:04.594Z,8.07
2022-08-05T07:38:32.978Z,10.77
2022-08-05T07:42:07.209Z,7.70
2022-08-05T07:43:51.588Z,6.38
2022-08-05T07:46:25.526Z,8.77
2022-08-05T07:49:03.350Z,6.40
2022-08-05T07:51:37.252Z,8.60
2022-08-05T07:54:10.134Z,7.22
2022-08-05T07:57:02.086Z,9.88
2022-08-05T07:59:38.189Z,10.35
2022-08-05T08:02:16.470Z,10.07
2022-08-05T08:04:46.230Z,8.65
2022-08-05T08:07:15.112Z,12.85
2022-08-05T08:09:43.288Z,9.60
2022-08-05T08:12:29.656Z,8.32
2022-08-05T08:15:02.168Z,7.78
2022-08-05T08:17:32.219Z,7.97
2022-08-05T08:20:22.991Z,13.35
2022-08-05T08:22:51.806Z,7.78
2022-08-05T08:25:27.041Z,9.68
2022-08-05T08:28:18.240Z,11.05
2022-08-05T08:30:56.427Z,7.53
2022-08-05T08:33:27.253Z,13.13
2022-08-05T08:36:18.427Z,11.00
2022-08-05T08:38:43.933Z,9.82
2022-08-05T08:41:22.330Z,10.00
2022-08-05T08:50:22.565Z,7.10
2022-08-05T08:53:00.409Z,5.20
2022-08-05T08:55:31.865Z,6.13
2022-08-05T08:58:17.860Z,6.38
2022-08-05T09:00:56.317Z,6.55
2022-08-05T09:03:40.607Z,6.50
2022-08-05T09:06:18.660Z,7.45
2022-08-05T09:08:54.018Z,5.15
2022-08-05T09:14:56.691Z,9.20
2022-08-05T09:16:58.404Z,5.63
2022-08-05T09:19:27.993Z,7.95
2022-08-05T09:22:22.228Z,8.02
2022-08-05T09:24:59.857Z,6.22
2022-08-05T09:28:05.541Z,6.55
2022-08-05T09:30:23.474Z,7.88
2022-08-05T09:32:52.975Z,5.30
2022-08-05T09:35:27.158Z,8.23
2022-08-05T09:38:17.603Z,10.32
2022-08-05T09:40:52.732Z,5.28
2022-08-05T09:43:40.834Z,7.20
2022-08-05T09:46:27.401Z,7.85
2022-08-05T09:49:07.322Z,7.57
2022-08-05T09:51:39.868Z,10.73
2022-08-05T09:54:08.584Z,10.70
2022-08-05T09:56:39.397Z,6.65
2022-08-05T09:59:08.348Z,7.43
2022-08-05T10:01:39.718Z,6.07
2022-08-05T10:04:16.137Z,9.45
2022-08-05T10:06:59.043Z,6.45
2022-08-05T10:09:29.474Z,7.87
2022-08-05T10:12:30.306Z,6.60
2022-08-05T10:15:13.096Z,8.98
2022-08-05T10:17:47.396Z,9.35
2022-08-05T10:20:25.194Z,7.20
2022-08-05T10:22:53.450Z,4.55
2022-08-05T10:25:21.615Z,4.40
2022-08-05T10:28:13.249Z,6.00
2022-08-05T10:32:48.444Z,9.57
2022-08-05T10:33:31.130Z,3.80
2022-08-05T10:36:04.939Z,6.35
2022-08-05T10:38:33.727Z,5.68
2022-08-05T10:41:05.045Z,7.75
2022-08-05T10:43:43.748Z,7.22
2022-08-05T10:46:15.666Z,10.95
2022-08-05T10:48:57.396Z,5.70
2022-08-05T10:51:29.313Z,5.97
2022-08-05T10:54:00.907Z,4.07
2022-08-05T10:56:31.274Z,5.32
2022-08-05T10:59:12.703Z,5.05
2022-08-05T11:02:07.317Z,7.72
2022-08-05T11:04:43.991Z,6.65
2022-08-05T11:07:16.320Z,4.35
2022-08-05T11:09:46.921Z,4.90
2022-08-05T11:12:33.876Z,3.70
2022-08-05T11:15:19.786Z,8.10
2022-08-05T11:17:57.478Z,6.28
2022-08-05T11:20:43.678Z,3.72
2022-08-05T11:23:33.703Z,3.80
2022-08-05T11:26:29.248Z,3.03
2022-08-05T11:29:12.667Z,2.75
2022-08-05T11:31:58.744Z,3.13
2022-08-05T11:34:39.535Z,3.25
2022-08-05T11:38:30.246Z,3.80
2022-08-05T11:40:03.117Z,2.78
2022-08-05T11:42:37.963Z,3.17
2022-08-05T11:45:23.198Z,3.72
2022-08-05T11:47:58.773Z,2.47
2022-08-05T11:50:27.092Z,2.47
2022-08-05T11:52:57.981Z,5.25
2022-08-05T11:55:31.736Z,2.30
2022-08-05T11:58:08.504Z,2.80
2022-08-05T12:00:41.161Z,2.58
2022-08-05T12:03:23.722Z,2.05
2022-08-05T12:05:59.262Z,4.32
2022-08-05T12:08:27.740Z,3.00
2022-08-05T12:10:56.609Z,7.25
2022-08-05T12:13:47.857Z,3.90
2022-08-05T12:16:19.183Z,2.60
2022-08-05T12:18:53.117Z,4.97
2022-08-05T12:21:23.725Z,3.42
2022-08-05T12:23:56.165Z,3.60
2022-08-05T12:26:24.339Z,7.53
2022-08-05T12:28:54.119Z,2.47
2022-08-05T12:31:23.732Z,1.85
2022-08-05T12:34:03.107Z,4.93
2022-08-05T12:36:31.472Z,3.25
2022-08-05T12:38:59.404Z,3.13
2022-08-05T12:41:34.419Z,4.70
2022-08-05T12:44:03.897Z,6.18
2022-08-05T12:46:32.851Z,4.55
2022-08-05T12:49:05.856Z,2.55
2022-08-05T12:52:12.541Z,4.68
2022-08-05T12:54:33.234Z,2.58
2022-08-05T12:57:02.166Z,3.90
2022-08-05T13:00:08.368Z,6.63
2022-08-05T13:02:22.024Z,4.07
2022-08-05T13:04:59.511Z,4.65
2022-08-05T13:10:19.997Z,5.20
2022-08-05T13:12:51.093Z,2.70
2022-08-05T13:15:41.829Z,3.22
2022-08-05T13:18:19.461Z,3.78
2022-08-05T13:20:50.355Z,2.58
2022-08-05T13:23:22.668Z,4.60
2022-08-05T13:28:21.823Z,2.50
2022-08-05T13:30:51.256Z,4.95
2022-08-05T13:34:23.398Z,2.47
2022-08-05T13:36:11.010Z,2.83
2022-08-05T13:38:43.065Z,5.93
2022-08-05T13:41:11.518Z,5.10
2022-08-05T13:43:44.330Z,3.75
2022-08-05T13:47:01.946Z,2.60
2022-08-05T13:49:11.735Z,5.68
2022-08-05T13:51:42.077Z,3.17
2022-08-05T13:54:16.146Z,2.45
2022-08-05T13:56:45.282Z,3.33
2022-08-05T13:59:21.077Z,3.42
2022-08-05T14:01:56.663Z,4.65
2022-08-05T14:04:50.839Z,3.47
2022-08-05T14:07:25.578Z,2.42
2022-08-05T14:10:13.192Z,3.47
2022-08-05T14:12:42.799Z,2.60
2022-08-05T14:16:08.067Z,4.65
2022-08-05T14:17:59.619Z,3.00
2022-08-05T14:20:29.453Z,4.57
2022-08-05T14:22:59.078Z,3.70
2022-08-05T14:25:28.139Z,3.40
2022-08-05T14:27:56.757Z,2.45
2022-08-05T14:30:28.084Z,2.83
2022-08-05T14:32:56.648Z,2.85
2022-08-05T14:35:37.063Z,3.08
2022-08-05T14:38:32.714Z,8.52
2022-08-05T14:41:05.681Z,8.57
2022-08-05T14:43:59.654Z,8.25
2022-08-05T14:46:23.400Z,13.27
2022-08-05T14:48:58.006Z,10.80
2022-08-05T14:51:28.336Z,10.80
2022-08-05T14:54:25.925Z,12.07
2022-08-05T14:56:48.674Z,8.10
2022-08-05T14:59:16.981Z,6.78
2022-08-05T15:01:48.182Z,5.00
2022-08-05T15:04:17.573Z,4.93
2022-08-05T15:06:49.228Z,4.15
2022-08-05T15:09:52.367Z,5.30
2022-08-05T15:12:08.927Z,5.82
2022-08-05T15:14:48.266Z,6.22
2022-08-05T15:17:46.953Z,8.98
2022-08-05T15:20:09.784Z,7.75
2022-08-05T15:22:45.348Z,9.77
2022-08-05T15:25:14.902Z,14.32
2022-08-05T15:27:52.243Z,25.75
2022-08-05T15:30:22.554Z,21.45
2022-08-05T15:32:50.651Z,9.18
2022-08-05T15:35:18.461Z,16.88
2022-08-05T15:38:33.918Z,9.13
2022-08-05T15:41:00.359Z,7.88
2022-08-05T15:43:27.029Z,13.63
2022-08-05T15:46:00.198Z,10.10
2022-08-05T15:48:29.571Z,8.18
2022-08-05T15:50:57.577Z,10.32
2022-08-05T15:53:26.313Z,12.02
2022-08-05T15:56:02.777Z,7.95
2022-08-05T15:58:35.529Z,16.30
2022-08-05T16:01:17.262Z,8.65
2022-08-05T16:03:48.730Z,10.40
2022-08-05T16:06:19.828Z,9.77
2022-08-05T16:08:50.916Z,6.47
2022-08-05T16:11:40.059Z,8.07
2022-08-05T16:14:10.093Z,4.53
2022-08-05T16:16:46.131Z,5.78
2022-08-05T16:19:25.467Z,5.97
2022-08-05T16:22:02.929Z,3.85
2022-08-05T16:24:40.424Z,4.75
2022-08-05T16:27:15.916Z,4.03
2022-08-05T16:29:50.235Z,7.45
2022-08-05T16:32:28.262Z,5.18
2022-08-05T16:34:58.663Z,5.88
2022-08-05T16:38:02.700Z,7.10
2022-08-05T16:40:28.869Z,4.95
2022-08-05T16:42:58.915Z,5.67
2022-08-05T16:46:04.467Z,9.88
2022-08-05T16:48:25.241Z,10.40
2022-08-05T16:50:54.324Z,8.18
2022-08-05T16:53:32.433Z,6.68
2022-08-05T16:56:11.689Z,5.22
2022-08-05T16:58:41.675Z,8.98
2022-08-05T17:01:10.564Z,4.90
2022-08-05T17:03:38.965Z,4.80
2022-08-05T17:06:07.027Z,7.22
2022-08-05T17:08:52.012Z,5.38
2022-08-05T17:11:25.001Z,4.55
2022-08-05T17:14:05.679Z,3.60
2022-08-05T17:16:36.633Z,3.35
2022-08-05T17:19:22.006Z,2.45
2022-08-05T17:21:51.607Z,2.88
2022-08-05T17:24:35.052Z,6.28
2022-08-05T17:27:06.953Z,4.03
2022-08-05T17:29:40.915Z,4.13
2022-08-05T17:32:11.188Z,3.08
2022-08-05T17:34:40.020Z,5.43
2022-08-05T17:37:29.384Z,3.92
2022-08-05T17:39:56.245Z,3.88
2022-08-05T17:42:30.123Z,2.38
2022-08-05T17:45:17.688Z,3.80
2022-08-05T17:47:52.946Z,1.95
2022-08-05T17:50:28.166Z,2.50
2022-08-05T17:52:58.808Z,3.47
2022-08-05T17:55:38.163Z,2.53
2022-08-05T17:58:09.759Z,4.40
2022-08-05T18:00:45.157Z,2.05
2022-08-05T18:03:39.204Z,4.28
2022-08-05T18:06:11.059Z,3.00
2022-08-05T18:08:44.593Z,3.95
2022-08-05T18:11:24.456Z,4.60
2022-08-05T18:13:57.736Z,2.33
2022-08-05T18:16:29.142Z,4.35
2022-08-05T18:18:57.442Z,1.95
2022-08-05T18:21:25.976Z,4.38
2022-08-05T18:23:54.611Z,2.10
2022-08-05T18:26:29.122Z,3.80
2022-08-05T18:28:57.711Z,3.45
2022-08-05T18:31:25.986Z,2.60
2022-08-05T18:34:02.961Z,5.85
2022-08-05T18:36:30.724Z,3.72
2022-08-05T18:38:58.563Z,1.98
2022-08-05T18:41:56.592Z,2.67
2022-08-05T18:44:15.127Z,3.88
2022-08-05T18:47:01.658Z,2.55
2022-08-05T18:50:03.812Z,3.20
2022-08-05T18:52:41.701Z,4.50
2022-08-05T18:55:19.739Z,1.52
2022-08-05T18:57:52.608Z,2.10
2022-08-05T19:00:27.079Z,1.52
2022-08-05T19:02:57.906Z,5.78
2022-08-05T19:06:11.657Z,3.00
2022-08-05T19:08:30.967Z,3.95
2022-08-05T19:11:04.790Z,2.17
2022-08-05T19:13:36.189Z,4.20
2022-08-05T19:16:25.173Z,3.15
2022-08-05T19:18:53.936Z,4.80
2022-08-05T19:21:27.641Z,3.95
2022-08-05T19:24:06.102Z,2.55
2022-08-05T19:26:45.477Z,5.75
2022-08-05T19:29:23.057Z,1.55
2022-08-05T19:31:51.183Z,3.30
2022-08-05T19:34:19.190Z,1.30
2022-08-05T19:36:48.337Z,6.95
2022-08-05T19:39:17.291Z,6.30
2022-08-05T19:42:06.915Z,3.60
2022-08-05T19:44:36.283Z,4.22
2022-08-05T19:47:06.848Z,3.45
2022-08-05T19:49:37.498Z,3.97
2022-08-05T19:52:30.481Z,3.45
2022-08-05T19:54:55.519Z,3.58
2022-08-05T19:57:49.201Z,2.35
2022-08-05T20:00:11.983Z,2.78
2022-08-05T20:02:40.182Z,1.90
2022-08-05T20:05:16.448Z,4.60
2022-08-05T20:10:26.976Z,2.63
2022-08-05T20:12:55.272Z,3.65
2022-08-05T20:15:50.783Z,5.43
2022-08-05T20:18:33.552Z,2.35
2022-08-05T20:21:00.287Z,2.47
2022-08-05T20:23:39.899Z,5.20
2022-08-05T20:26:18.119Z,2.08
2022-08-05T20:28:48.122Z,2.80
2022-08-05T20:31:16.621Z,2.55
2022-08-05T20:33:45.126Z,3.28
2022-08-05T20:36:14.307Z,5.13
2022-08-05T20:38:53.727Z,4.25
2022-08-05T20:41:43.748Z,3.63
2022-08-05T20:44:29.841Z,3.70
2022-08-05T20:46:59.409Z,2.55
2022-08-05T20:49:27.703Z,3.42
2022-08-05T20:51:57.253Z,5.38
2022-08-05T20:54:42.917Z,3.03
2022-08-05T20:57:24.587Z,2.92
2022-08-05T21:00:19.959Z,2.38
2022-08-05T21:02:57.130Z,2.72
2022-08-05T21:05:25.553Z,3.28
2022-08-05T21:08:06.494Z,3.03
2022-08-05T21:10:34.517Z,3.83
2022-08-05T21:13:11.077Z,5.05
2022-08-05T21:15:44.554Z,2.17
2022-08-05T21:20:54.285Z,3.08
2022-08-05T21:23:23.526Z,3.75
2022-08-05T21:25:52.156Z,2.80
2022-08-05T21:28:30.630Z,5.75
2022-08-05T21:30:58.997Z,4.35
2022-08-05T21:33:37.005Z,1.85
2022-08-05T21:36:08.052Z,3.08
2022-08-05T21:38:40.411Z,1.92
2022-08-05T21:41:08.431Z,3.30
2022-08-05T21:43:41.913Z,7.55
2022-08-05T21:46:19.038Z,2.45
2022-08-05T21:48:48.929Z,2.08
2022-08-05T21:51:25.345Z,4.70
2022-08-05T21:54:05.288Z,4.03
2022-08-05T21:56:33.106Z,4.00
2022-08-05T21:59:07.757Z,1.88
2022-08-05T22:01:36.166Z,3.47
2022-08-05T22:04:04.400Z,2.90
2022-08-05T22:06:37.037Z,4.40
2022-08-05T22:09:14.018Z,3.00
2022-08-05T22:11:43.547Z,4.22
2022-08-05T22:14:33.107Z,2.33
2022-08-05T22:17:05.025Z,3.67
2022-08-05T22:20:01.593Z,2.42
2022-08-05T22:22:27.399Z,5.25
2022-08-05T22:25:18.109Z,5.10
2022-08-05T22:28:08.250Z,1.00
2022-08-05T22:30:43.930Z,1.45
2022-08-05T22:33:56.787Z,3.58
2022-08-05T22:36:11.539Z,4.18
2022-08-05T22:38:42.835Z,2.13
2022-08-05T22:41:10.616Z,3.10
2022-08-05T22:43:40.878Z,3.60
2022-08-05T22:46:13.036Z,1.40
2022-08-05T22:48:51.206Z,4.40
2022-08-05T22:51:23.073Z,0.70
2022-08-05T22:54:06.983Z,1.40
2022-08-05T22:56:34.986Z,2.95
2022-08-05T22:59:45.304Z,1.75
2022-08-05T23:02:05.810Z,1.58
2022-08-05T23:04:35.749Z,1.38
2022-08-05T23:07:03.757Z,1.33
2022-08-05T23:09:53.417Z,1.52
2022-08-05T23:12:23.794Z,1.25
2022-08-05T23:14:52.272Z,1.77
2022-08-05T23:17:34.697Z,1.13
2022-08-05T23:20:16.760Z,0.63
2022-08-05T23:22:47.209Z,1.95
2022-08-05T23:25:17.130Z,1.20
2022-08-05T23:28:04.151Z,1.98
2022-08-05T23:30:39.972Z,2.38
2022-08-05T23:33:22.057Z,2.05
2022-08-05T23:35:55.960Z,2.25
2022-08-05T23:38:26.061Z,2.75
2022-08-05T23:40:54.758Z,1.52
2022-08-05T23:43:25.472Z,1.55
2022-08-05T23:46:19.868Z,1.00
2022-08-05T23:48:59.751Z,4.30
2022-08-05T23:51:52.427Z,2.13
2022-08-05T23:54:25.485Z,2.55
2022-08-05T23:56:55.352Z,0.88
2022-08-05T23:59:37.307Z,1.85
